Time;durP1;ratioP1;P1;durP2;ratioP2;P2;SDS_P1;SDS_P2;PMS_P1;PMS_P2;Temp;Humidity;BMP_temperature;BMP_pressure;BME280_temperature;BME280_humidity;BME280_pressure;Samples;Min_cycle;Max_cycle;Signal;HPM_P1;HPM_P2
2022/07/23 00:01:06;;;;;;;;;;;20.30;99.90;;;;;;5073317;28;19919;-74
2022/07/23 00:03:32;;;;;;;;;;;20.30;99.90;;;;;;5073853;28;19912;-75
2022/07/23 00:05:57;;;;;;;;;;;20.20;99.90;;;;;;5075188;28;20017;-75
2022/07/23 00:08:23;;;;;;;;;;;20.20;99.90;;;;;;5065232;28;19909;-75
2022/07/23 00:10:49;;;;;;;;;;;20.20;99.90;;;;;;5074992;28;20274;-75
2022/07/23 00:13:15;;;;;;;;;;;20.20;99.90;;;;;;5074019;28;19916;-75
2022/07/23 00:15:40;;;;;;;;;;;20.30;99.90;;;;;;5074843;28;19908;-74
2022/07/23 00:18:06;;;;;;;;;;;20.40;99.90;;;;;;5074458;28;19913;-75
2022/07/23 00:20:31;;;;;;;;;;;20.40;99.90;;;;;;5074796;28;19908;-74
2022/07/23 00:22:57;;;;;;;;;;;20.30;99.90;;;;;;5067515;28;19908;-75
2022/07/23 00:25:23;;;;;;;;;;;20.30;99.90;;;;;;5064205;28;19959;-75
2022/07/23 00:27:48;;;;;;;;;;;20.10;99.90;;;;;;5073123;28;19908;-75
2022/07/23 00:30:14;;;;;;;;;;;20.10;99.90;;;;;;5074573;28;19920;-75
2022/07/23 00:32:50;;;;;;;;;;;20.40;99.90;;;;;;5073790;28;19912;-74
2022/07/23 00:35:18;;;;;;;;;;;20.50;99.90;;;;;;5073883;28;19915;-74
2022/07/23 00:37:44;;;;;;;;;;;20.50;99.90;;;;;;5074395;28;19954;-74
2022/07/23 00:40:10;;;;;;;;;;;20.50;99.90;;;;;;5074147;28;19952;-74
2022/07/23 00:42:35;;;;;;;;;;;20.50;99.90;;;;;;5073851;28;19995;-75
2022/07/23 00:45:01;;;;;;;;;;;20.50;99.90;;;;;;5073484;28;19966;-75
2022/07/23 00:47:26;;;;;;;;;;;20.30;99.90;;;;;;5074169;28;20170;-75
2022/07/23 00:49:52;;;;;;;;;;;20.20;99.90;;;;;;5073845;28;19920;-75
2022/07/23 00:52:18;;;;;;;;;;;20.20;99.90;;;;;;5073747;28;19908;-75
2022/07/23 00:54:44;;;;;;;;;;;20.20;99.90;;;;;;5066556;28;19931;-75
2022/07/23 00:57:09;;;;;;;;;;;20.20;99.90;;;;;;5067569;28;20377;-75
2022/07/23 00:59:35;;;;;;;;;;;20.20;99.90;;;;;;5074132;28;20389;-75
2022/07/23 01:02:00;;;;;;;;;;;20.20;99.90;;;;;;5073643;28;19909;-75
2022/07/23 01:04:26;;;;;;;;;;;20.20;99.90;;;;;;5072900;28;19908;-75
2022/07/23 01:06:51;;;;;;;;;;;20.40;99.90;;;;;;5073854;28;19909;-75
2022/07/23 01:09:17;;;;;;;;;;;20.40;99.90;;;;;;5073938;28;20307;-75
2022/07/23 01:11:43;;;;;;;;;;;20.40;99.90;;;;;;5072289;28;19966;-75
2022/07/23 01:14:09;;;;;;;;;;;20.10;99.90;;;;;;5073399;28;19956;-75
2022/07/23 01:16:35;;;;;;;;;;;20.00;99.90;;;;;;5073649;28;19970;-75
2022/07/23 01:19:00;;;;;;;;;;;19.80;99.90;;;;;;5073273;28;20365;-75
2022/07/23 01:21:26;;;;;;;;;;;19.70;99.90;;;;;;5073231;28;20435;-75
2022/07/23 01:23:51;;;;;;;;;;;19.60;99.90;;;;;;5069345;28;20178;-75
2022/07/23 01:26:17;;;;;;;;;;;19.60;99.90;;;;;;5063234;28;19962;-75
2022/07/23 01:28:43;;;;;;;;;;;19.60;99.90;;;;;;5069922;28;19912;-75
2022/07/23 01:31:08;;;;;;;;;;;19.50;99.90;;;;;;5073399;28;20015;-75
2022/07/23 01:33:34;;;;;;;;;;;19.50;99.90;;;;;;5072165;28;19912;-75
2022/07/23 01:35:59;;;;;;;;;;;19.40;99.90;;;;;;5073769;28;19908;-75
2022/07/23 01:38:25;;;;;;;;;;;19.20;99.90;;;;;;5073474;28;19916;-75
2022/07/23 01:40:50;;;;;;;;;;;19.20;99.90;;;;;;5073427;28;19913;-75
2022/07/23 01:43:16;;;;;;;;;;;19.20;99.90;;;;;;5072378;28;19916;-75
2022/07/23 01:45:42;;;;;;;;;;;19.10;99.90;;;;;;5073192;28;19909;-75
2022/07/23 01:48:08;;;;;;;;;;;19.00;99.90;;;;;;5072746;28;19940;-75
2022/07/23 01:50:33;;;;;;;;;;;18.90;99.90;;;;;;5073123;28;19943;-75
2022/07/23 01:52:59;;;;;;;;;;;19.00;99.90;;;;;;5071740;28;19912;-75
2022/07/23 01:55:24;;;;;;;;;;;19.00;99.90;;;;;;5061602;28;19999;-75
2022/07/23 01:57:50;;;;;;;;;;;19.00;99.90;;;;;;5072278;28;19909;-75
2022/07/23 02:00:15;;;;;;;;;;;18.80;99.90;;;;;;5072850;28;19908;-75
2022/07/23 02:02:41;;;;;;;;;;;19.00;99.90;;;;;;5072309;28;19961;-75
2022/07/23 02:05:07;;;;;;;;;;;19.10;99.90;;;;;;5072279;28;19920;-75
2022/07/23 02:07:33;;;;;;;;;;;19.10;99.90;;;;;;5072781;28;20033;-75
2022/07/23 02:09:58;;;;;;;;;;;18.90;99.90;;;;;;5072885;28;19908;-75
2022/07/23 02:12:24;;;;;;;;;;;19.10;99.90;;;;;;5071963;28;20016;-75
2022/07/23 02:14:49;;;;;;;;;;;19.30;99.90;;;;;;5071917;28;20365;-75
2022/07/23 02:17:15;;;;;;;;;;;19.10;99.90;;;;;;5072422;28;19908;-76
2022/07/23 02:19:40;;;;;;;;;;;19.10;99.90;;;;;;5072214;28;19955;-75
2022/07/23 02:22:06;;;;;;;;;;;19.00;99.90;;;;;;5072033;28;19959;-75
2022/07/23 02:24:31;;;;;;;;;;;18.90;99.90;;;;;;5065694;28;20293;-75
2022/07/23 02:26:57;;;;;;;;;;;18.90;99.90;;;;;;5063351;28;19908;-75
2022/07/23 02:29:22;;;;;;;;;;;18.90;99.90;;;;;;5072394;28;19919;-75
2022/07/23 02:31:48;;;;;;;;;;;18.80;99.90;;;;;;5072042;28;19923;-75
2022/07/23 02:34:13;;;;;;;;;;;18.70;99.90;;;;;;5071858;28;19924;-76
2022/07/23 02:36:39;;;;;;;;;;;18.60;99.90;;;;;;5072423;28;20343;-75
2022/07/23 02:39:05;;;;;;;;;;;18.60;99.90;;;;;;5070930;28;19962;-75
2022/07/23 02:41:30;;;;;;;;;;;18.70;99.90;;;;;;5071828;28;19958;-75
2022/07/23 02:43:56;;;;;;;;;;;18.70;99.90;;;;;;5071520;28;20421;-75
2022/07/23 02:46:21;;;;;;;;;;;18.70;99.90;;;;;;5072089;28;19908;-75
2022/07/23 02:48:47;;;;;;;;;;;18.60;99.90;;;;;;5071587;28;19966;-75
2022/07/23 02:51:12;;;;;;;;;;;18.70;99.90;;;;;;5071885;28;20007;-75
2022/07/23 02:53:38;;;;;;;;;;;18.70;99.90;;;;;;5066644;28;19913;-75
2022/07/23 02:56:03;;;;;;;;;;;18.80;99.90;;;;;;5069499;28;19999;-75
2022/07/23 02:58:29;;;;;;;;;;;18.70;99.90;;;;;;5065597;28;20373;-75
2022/07/23 03:00:54;;;;;;;;;;;18.70;99.90;;;;;;5071616;28;19915;-75
2022/07/23 03:03:20;;;;;;;;;;;18.70;99.90;;;;;;5070705;28;19908;-75
2022/07/23 03:05:45;;;;;;;;;;;18.70;99.90;;;;;;5062719;28;19909;-75
2022/07/23 03:08:11;;;;;;;;;;;18.80;99.90;;;;;;5070249;28;19912;-75
2022/07/23 03:10:36;;;;;;;;;;;18.90;99.90;;;;;;5071696;28;19915;-75
2022/07/23 03:13:02;;;;;;;;;;;18.90;99.90;;;;;;5071077;28;19926;-75
2022/07/23 03:15:27;;;;;;;;;;;18.70;99.90;;;;;;5058196;28;19908;-75
2022/07/23 03:17:53;;;;;;;;;;;18.60;99.90;;;;;;5071438;28;20361;-75
2022/07/23 03:20:18;;;;;;;;;;;18.50;99.90;;;;;;5071328;28;19943;-75
2022/07/23 03:22:44;;;;;;;;;;;18.60;99.90;;;;;;5071033;28;19908;-75
2022/07/23 03:25:09;;;;;;;;;;;18.60;99.90;;;;;;5060153;28;19912;-75
2022/07/23 03:27:35;;;;;;;;;;;18.60;99.90;;;;;;5070118;28;19908;-75
2022/07/23 03:30:00;;;;;;;;;;;18.70;99.90;;;;;;5071205;28;20546;-75
2022/07/23 03:32:26;;;;;;;;;;;18.50;99.90;;;;;;5070589;28;19951;-75
2022/07/23 03:34:52;;;;;;;;;;;18.40;99.90;;;;;;5069808;28;20446;-75
2022/07/23 03:37:17;;;;;;;;;;;18.10;99.90;;;;;;5071385;28;20266;-75
2022/07/23 03:39:43;;;;;;;;;;;17.90;99.90;;;;;;5071160;28;19912;-75
2022/07/23 03:42:09;;;;;;;;;;;17.80;99.90;;;;;;5070662;28;19957;-75
2022/07/23 03:44:36;;;;;;;;;;;17.70;99.90;;;;;;5070505;28;20277;-75
2022/07/23 03:47:02;;;;;;;;;;;17.70;99.90;;;;;;5065680;28;20373;-75
2022/07/23 03:49:28;;;;;;;;;;;17.80;99.90;;;;;;5070843;28;19954;-75
2022/07/23 03:51:53;;;;;;;;;;;17.70;99.90;;;;;;5066102;28;19950;-75
2022/07/23 03:54:19;;;;;;;;;;;17.60;99.90;;;;;;5062036;28;20182;-75
2022/07/23 03:56:44;;;;;;;;;;;17.60;99.90;;;;;;5058633;28;20288;-75
2022/07/23 03:59:10;;;;;;;;;;;17.60;99.90;;;;;;5070863;28;19914;-75
2022/07/23 04:01:35;;;;;;;;;;;17.50;99.90;;;;;;5070372;28;20008;-75
2022/07/23 04:04:01;;;;;;;;;;;17.40;99.90;;;;;;5070068;28;19955;-75
2022/07/23 04:06:27;;;;;;;;;;;17.40;99.90;;;;;;5070882;28;19908;-75
2022/07/23 04:08:52;;;;;;;;;;;17.50;99.90;;;;;;5063520;28;19913;-75
2022/07/23 04:11:18;;;;;;;;;;;17.60;99.90;;;;;;5070428;28;20417;-74
2022/07/23 04:13:43;;;;;;;;;;;17.70;99.90;;;;;;5070380;28;20369;-75
2022/07/23 04:16:09;;;;;;;;;;;17.80;99.90;;;;;;5070817;28;19908;-75
2022/07/23 04:18:34;;;;;;;;;;;17.80;99.90;;;;;;5070577;28;19909;-75
2022/07/23 04:21:00;;;;;;;;;;;17.70;99.90;;;;;;5070819;28;19909;-75
2022/07/23 04:23:25;;;;;;;;;;;17.70;99.90;;;;;;5065512;28;19916;-75
2022/07/23 04:25:51;;;;;;;;;;;17.90;99.90;;;;;;5070022;28;20321;-75
2022/07/23 04:28:17;;;;;;;;;;;17.90;99.90;;;;;;5064795;28;19909;-75
2022/07/23 04:30:42;;;;;;;;;;;18.00;99.90;;;;;;5070553;28;19927;-75
2022/07/23 04:33:08;;;;;;;;;;;18.00;99.90;;;;;;5069636;28;19916;-75
2022/07/23 04:35:33;;;;;;;;;;;18.00;99.90;;;;;;5070549;28;20356;-75
2022/07/23 04:37:59;;;;;;;;;;;18.20;99.90;;;;;;5070678;28;19909;-75
2022/07/23 04:40:25;;;;;;;;;;;18.10;99.90;;;;;;5071124;28;19915;-75
2022/07/23 04:42:51;;;;;;;;;;;18.10;99.90;;;;;;5070189;28;19909;-75
2022/07/23 04:45:16;;;;;;;;;;;18.20;99.90;;;;;;5070060;28;19932;-75
2022/07/23 04:47:42;;;;;;;;;;;18.20;99.90;;;;;;5073862;28;19909;-75
2022/07/23 04:50:07;;;;;;;;;;;18.40;99.90;;;;;;5074085;28;20299;-75
2022/07/23 04:52:33;;;;;;;;;;;18.50;99.90;;;;;;5073872;28;19956;-75
2022/07/23 04:54:58;;;;;;;;;;;18.70;99.90;;;;;;5073308;28;19915;-75
2022/07/23 04:57:24;;;;;;;;;;;18.80;99.90;;;;;;5073779;28;20331;-75
2022/07/23 04:59:49;;;;;;;;;;;18.80;99.90;;;;;;5073881;28;19908;-75
2022/07/23 05:02:15;;;;;;;;;;;18.80;99.90;;;;;;5073513;28;19913;-75
2022/07/23 05:04:40;;;;;;;;;;;18.90;99.90;;;;;;5070360;28;19924;-75
2022/07/23 05:07:06;;;;;;;;;;;19.00;99.90;;;;;;5069817;28;19959;-75
2022/07/23 05:09:32;;;;;;;;;;;19.20;99.90;;;;;;5073778;28;19912;-75
2022/07/23 05:11:57;;;;;;;;;;;19.30;99.90;;;;;;5073438;28;20308;-75
2022/07/23 05:14:23;;;;;;;;;;;19.40;99.90;;;;;;5077680;28;19916;-76
2022/07/23 05:16:48;;;;;;;;;;;19.50;99.90;;;;;;5076461;28;19909;-75
2022/07/23 05:19:14;;;;;;;;;;;19.50;99.90;;;;;;5075494;28;20030;-76
2022/07/23 05:21:39;;;;;;;;;;;19.60;99.90;;;;;;5073676;28;20016;-76
2022/07/23 05:24:05;;;;;;;;;;;19.90;99.90;;;;;;5072026;28;19915;-75
2022/07/23 05:26:31;;;;;;;;;;;20.00;99.90;;;;;;5070644;28;20003;-76
2022/07/23 05:28:56;;;;;;;;;;;20.00;99.90;;;;;;5073708;28;19912;-76
2022/07/23 05:31:22;;;;;;;;;;;20.10;99.90;;;;;;5060804;28;19970;-76
2022/07/23 05:33:47;;;;;;;;;;;20.10;99.90;;;;;;5073897;28;19919;-76
2022/07/23 05:36:13;;;;;;;;;;;20.00;99.90;;;;;;5075111;28;19912;-75
2022/07/23 05:38:38;;;;;;;;;;;20.00;99.90;;;;;;5075093;28;19944;-75
2022/07/23 05:41:04;;;;;;;;;;;19.90;99.90;;;;;;5075860;28;19955;-74
2022/07/23 05:43:29;;;;;;;;;;;19.80;99.90;;;;;;5073766;28;19908;-75
2022/07/23 05:45:55;;;;;;;;;;;19.80;99.90;;;;;;5066535;28;19912;-75
2022/07/23 05:48:20;;;;;;;;;;;19.80;99.90;;;;;;5073855;28;19909;-74
2022/07/23 05:50:46;;;;;;;;;;;19.80;99.90;;;;;;5073876;28;19932;-75
2022/07/23 05:53:12;;;;;;;;;;;19.70;99.90;;;;;;5070643;28;20384;-75
2022/07/23 05:55:37;;;;;;;;;;;19.90;99.90;;;;;;5071469;28;19916;-76
2022/07/23 05:58:03;;;;;;;;;;;20.00;99.90;;;;;;5068655;28;19908;-76
2022/07/23 06:00:29;;;;;;;;;;;20.00;99.90;;;;;;5066677;28;20361;-75
2022/07/23 06:02:54;;;;;;;;;;;20.00;99.90;;;;;;5073536;28;19993;-75
2022/07/23 06:05:20;;;;;;;;;;;20.20;99.90;;;;;;5074776;28;20167;-75
2022/07/23 06:07:45;;;;;;;;;;;20.40;99.90;;;;;;5069882;28;19916;-75
2022/07/23 06:10:11;;;;;;;;;;;20.50;99.90;;;;;;5071407;28;20251;-76
2022/07/23 06:12:38;;;;;;;;;;;20.70;99.90;;;;;;5075005;28;19913;-75
2022/07/23 06:15:04;;;;;;;;;;;20.90;99.90;;;;;;5075007;28;19912;-75
2022/07/23 06:17:29;;;;;;;;;;;20.90;99.90;;;;;;5074911;28;19954;-76
2022/07/23 06:19:55;;;;;;;;;;;21.00;99.90;;;;;;5073340;28;19909;-76
2022/07/23 06:22:21;;;;;;;;;;;21.20;99.90;;;;;;5073256;28;19908;-75
2022/07/23 06:24:46;;;;;;;;;;;21.60;99.90;;;;;;5061989;28;19909;-76
2022/07/23 06:27:12;;;;;;;;;;;22.50;99.90;;;;;;5073333;28;20408;-76
2022/07/23 06:29:37;;;;;;;;;;;23.30;99.90;;;;;;5073069;28;19963;-76
2022/07/23 06:32:03;;;;;;;;;;;23.30;99.90;;;;;;5072772;28;20373;-76
2022/07/23 06:34:28;;;;;;;;;;;22.90;99.90;;;;;;5072491;28;19912;-74
2022/07/23 06:36:54;;;;;;;;;;;22.70;99.90;;;;;;5073713;28;19908;-75
2022/07/23 06:39:19;;;;;;;;;;;22.80;99.90;;;;;;5073713;28;20401;-75
2022/07/23 06:41:45;;;;;;;;;;;23.30;99.90;;;;;;5073170;28;19909;-75
2022/07/23 06:44:10;;;;;;;;;;;23.70;99.90;;;;;;5072889;28;19912;-76
2022/07/23 06:46:36;;;;;;;;;;;23.70;99.90;;;;;;5072787;28;19954;-76
2022/07/23 06:49:01;;;;;;;;;;;23.30;99.90;;;;;;5073100;28;19908;-75
2022/07/23 06:51:27;;;;;;;;;;;23.10;99.90;;;;;;5073328;28;20263;-75
2022/07/23 06:53:52;;;;;;;;;;;23.10;99.90;;;;;;5069840;28;19917;-75
2022/07/23 06:56:18;;;;;;;;;;;23.20;99.90;;;;;;5063221;28;20388;-75
2022/07/23 06:58:43;;;;;;;;;;;23.50;99.90;;;;;;5070907;28;19909;-74
2022/07/23 07:01:09;;;;;;;;;;;23.40;99.90;;;;;;5072275;28;20328;-75
2022/07/23 07:03:35;;;;;;;;;;;23.20;99.90;;;;;;5066347;28;19916;-75
2022/07/23 07:06:00;;;;;;;;;;;23.10;99.90;;;;;;5069531;28;19909;-74
2022/07/23 07:08:26;;;;;;;;;;;22.90;99.90;;;;;;5070768;28;19931;-75
2022/07/23 07:10:52;;;;;;;;;;;22.40;99.90;;;;;;5071461;28;19908;-74
2022/07/23 07:13:17;;;;;;;;;;;22.20;99.90;;;;;;5070895;28;20403;-75
2022/07/23 07:15:43;;;;;;;;;;;22.10;99.90;;;;;;5072079;28;19957;-75
2022/07/23 07:18:08;;;;;;;;;;;22.20;99.90;;;;;;5072228;28;19912;-75
2022/07/23 07:20:34;;;;;;;;;;;22.20;99.90;;;;;;5072364;28;19912;-74
2022/07/23 07:22:59;;;;;;;;;;;22.50;99.90;;;;;;5071384;28;19908;-75
2022/07/23 07:25:25;;;;;;;;;;;23.20;99.90;;;;;;5061593;28;20066;-75
2022/07/23 07:27:50;;;;;;;;;;;23.30;99.90;;;;;;5071564;28;19932;-75
2022/07/23 07:30:16;;;;;;;;;;;24.00;99.90;;;;;;5071458;28;19919;-75
2022/07/23 07:32:42;;;;;;;;;;;25.30;99.90;;;;;;5070868;28;19919;-76
2022/07/23 07:35:08;;;;;;;;;;;26.00;99.90;;;;;;5069225;28;19995;-75
2022/07/23 07:37:33;;;;;;;;;;;26.30;99.90;;;;;;5071141;28;20062;-75
2022/07/23 07:39:59;;;;;;;;;;;25.30;99.90;;;;;;5066510;28;19908;-76
2022/07/23 07:42:24;;;;;;;;;;;25.90;99.90;;;;;;5064521;28;19915;-75
2022/07/23 07:44:50;;;;;;;;;;;26.10;99.90;;;;;;5070828;28;19908;-75
2022/07/23 07:47:15;;;;;;;;;;;27.50;99.90;;;;;;5057686;28;20285;-75
2022/07/23 07:49:42;;;;;;;;;;;27.10;96.80;;;;;;5070771;28;19962;-75
2022/07/23 07:52:07;;;;;;;;;;;26.60;96.80;;;;;;5070684;28;20002;-75
2022/07/23 07:54:33;;;;;;;;;;;27.60;96.40;;;;;;5069252;28;20397;-75
2022/07/23 07:56:58;;;;;;;;;;;27.60;95.40;;;;;;5064506;28;19916;-75
2022/07/23 07:59:24;;;;;;;;;;;27.00;94.50;;;;;;5071089;28;20009;-74
2022/07/23 08:01:49;;;;;;;;;;;26.00;95.20;;;;;;5070652;28;19908;-75
2022/07/23 08:04:15;;;;;;;;;;;25.90;96.20;;;;;;5070259;28;20433;-75
2022/07/23 08:06:40;;;;;;;;;;;26.10;96.10;;;;;;5071119;28;19970;-75
2022/07/23 08:09:06;;;;;;;;;;;27.30;95.80;;;;;;5071034;28;19966;-75
2022/07/23 08:11:31;;;;;;;;;;;27.60;95.70;;;;;;5065507;28;20297;-75
2022/07/23 08:13:57;;;;;;;;;;;28.10;91.90;;;;;;5059840;28;20003;-75
2022/07/23 08:16:22;;;;;;;;;;;27.80;91.00;;;;;;5070721;28;19912;-75
2022/07/23 08:18:48;;;;;;;;;;;26.70;93.80;;;;;;5069390;28;19934;-75
2022/07/23 08:21:13;;;;;;;;;;;26.60;94.50;;;;;;5070721;28;20225;-75
2022/07/23 08:23:39;;;;;;;;;;;26.50;93.90;;;;;;5070473;28;19913;-75
2022/07/23 08:26:04;;;;;;;;;;;24.50;96.90;;;;;;5066152;28;20277;-75
2022/07/23 08:28:32;;;;;;;;;;;25.80;96.50;;;;;;5070479;28;20286;-75
2022/07/23 08:30:58;;;;;;;;;;;25.30;95.00;;;;;;5074452;28;19939;-75
2022/07/23 08:33:24;;;;;;;;;;;25.50;94.50;;;;;;5073447;28;20595;-75
2022/07/23 08:35:51;;;;;;;;;;;26.20;96.60;;;;;;5074104;28;19916;-75
2022/07/23 08:38:17;;;;;;;;;;;26.90;94.50;;;;;;5074236;28;20067;-75
2022/07/23 08:40:44;;;;;;;;;;;26.40;93.80;;;;;;5074589;28;19919;-76
2022/07/23 08:43:12;;;;;;;;;;;26.40;95.00;;;;;;5073218;28;20365;-76
2022/07/23 08:45:39;;;;;;;;;;;26.10;94.20;;;;;;5074456;28;19908;-76
2022/07/23 08:48:07;;;;;;;;;;;26.00;95.50;;;;;;5074269;28;19909;-76
2022/07/23 08:50:32;;;;;;;;;;;26.70;93.90;;;;;;5073964;28;19909;-76
2022/07/23 08:52:58;;;;;;;;;;;27.50;93.40;;;;;;5072973;28;20299;-76
2022/07/23 08:55:24;;;;;;;;;;;28.30;89.20;;;;;;5062911;28;19913;-76
2022/07/23 08:57:50;;;;;;;;;;;27.80;90.90;;;;;;5073588;28;19908;-76
2022/07/23 09:00:16;;;;;;;;;;;27.50;92.60;;;;;;5068501;28;20007;-76
2022/07/23 09:02:43;;;;;;;;;;;28.10;92.10;;;;;;5073658;28;19991;-76
2022/07/23 09:05:12;;;;;;;;;;;28.20;91.00;;;;;;5073276;28;19909;-76
2022/07/23 09:07:58;;;;;;;;;;;27.30;92.90;;;;;;5072483;28;19909;-76
2022/07/23 09:10:23;;;;;;;;;;;27.80;94.30;;;;;;5073841;28;20278;-76
2022/07/23 09:12:48;;;;;;;;;;;28.20;92.10;;;;;;5073360;28;19920;-76
2022/07/23 09:15:14;;;;;;;;;;;28.00;88.80;;;;;;5073550;28;19916;-75
2022/07/23 09:17:42;;;;;;;;;;;27.50;92.40;;;;;;5073781;28;19962;-76
2022/07/23 09:20:13;;;;;;;;;;;27.70;92.50;;;;;;5073315;28;20362;-76
2022/07/23 09:22:40;;;;;;;;;;;27.80;92.30;;;;;;5073327;28;20392;-76
2022/07/23 09:25:15;;;;;;;;;;;28.00;90.10;;;;;;5065500;28;20014;-76
2022/07/23 09:27:49;;;;;;;;;;;28.70;87.90;;;;;;5070629;28;19979;-76
2022/07/23 09:30:15;;;;;;;;;;;28.00;87.10;;;;;;5073578;28;20331;-76
2022/07/23 09:32:40;;;;;;;;;;;28.10;92.90;;;;;;5072062;28;21883;-75
2022/07/23 09:35:06;;;;;;;;;;;28.70;88.70;;;;;;5072419;28;19908;-75
2022/07/23 09:37:32;;;;;;;;;;;29.50;85.40;;;;;;5073355;28;19908;-75
2022/07/23 09:40:07;;;;;;;;;;;29.70;86.50;;;;;;5073391;28;19912;-75
2022/07/23 09:42:33;;;;;;;;;;;30.20;83.30;;;;;;5072828;28;19913;-75
2022/07/23 09:44:59;;;;;;;;;;;29.30;85.10;;;;;;5072726;28;19908;-75
2022/07/23 09:47:28;;;;;;;;;;;28.40;85.90;;;;;;5073048;28;19999;-75
2022/07/23 09:49:56;;;;;;;;;;;28.40;92.90;;;;;;5064370;28;20373;-75
2022/07/23 09:52:26;;;;;;;;;;;28.80;87.70;;;;;;5072529;28;19930;-75
2022/07/23 09:54:56;;;;;;;;;;;28.60;89.40;;;;;;5066915;28;19915;-75
2022/07/23 09:57:22;;;;;;;;;;;29.20;89.80;;;;;;5067464;28;19915;-74
2022/07/23 09:59:48;;;;;;;;;;;28.60;89.20;;;;;;5072865;28;19913;-74
2022/07/23 10:02:14;;;;;;;;;;;28.60;91.40;;;;;;5072579;28;19915;-75
2022/07/23 10:04:41;;;;;;;;;;;29.80;88.50;;;;;;5072040;28;19909;-75
2022/07/23 10:07:08;;;;;;;;;;;28.80;86.60;;;;;;5073176;28;20299;-73
2022/07/23 10:09:36;;;;;;;;;;;28.90;89.30;;;;;;5072869;28;20012;-74
2022/07/23 10:14:47;;;;;;;;;;;28.40;85.50;;;;;;5072312;28;19975;-72
2022/07/23 10:17:13;;;;;;;;;;;28.80;93.00;;;;;;5072579;28;19962;-74
2022/07/23 10:19:39;;;;;;;;;;;30.00;90.20;;;;;;5059912;28;19944;-74
2022/07/23 10:22:06;;;;;;;;;;;29.10;82.60;;;;;;5072123;28;19999;-74
2022/07/23 10:24:51;;;;;;;;;;;29.40;83.30;;;;;;5061570;28;19913;-74
2022/07/23 10:27:36;;;;;;;;;;;30.30;85.30;;;;;;5068857;28;19912;-73
2022/07/23 10:30:07;;;;;;;;;;;30.40;90.00;;;;;;5067319;28;19921;-74
2022/07/23 10:32:51;;;;;;;;;;;31.50;90.50;;;;;;5070897;28;19934;-75
2022/07/23 10:35:35;;;;;;;;;;;30.20;86.70;;;;;;5071331;28;19944;-75
2022/07/23 10:38:02;;;;;;;;;;;29.80;81.50;;;;;;5072114;28;20358;-74
2022/07/23 10:40:30;;;;;;;;;;;30.00;82.10;;;;;;5070863;28;19940;-75
2022/07/23 10:42:58;;;;;;;;;;;30.40;83.00;;;;;;5071603;28;20370;-74
2022/07/23 10:45:23;;;;;;;;;;;31.00;82.00;;;;;;5071477;28;19920;-74
2022/07/23 10:47:50;;;;;;;;;;;29.90;78.30;;;;;;5071626;28;19995;-74
2022/07/23 10:50:17;;;;;;;;;;;29.90;86.20;;;;;;5071768;28;20333;-74
2022/07/23 10:53:03;;;;;;;;;;;30.90;81.80;;;;;;5070273;28;19909;-75
2022/07/23 10:55:28;;;;;;;;;;;31.40;79.80;;;;;;5063506;28;19909;-74
2022/07/23 10:57:54;;;;;;;;;;;31.90;78.40;;;;;;5068426;28;20003;-73
2022/07/23 11:00:20;;;;;;;;;;;31.60;82.80;;;;;;5070751;28;19930;-75
2022/07/23 11:02:46;;;;;;;;;;;31.80;79.00;;;;;;5071453;28;19908;-75
2022/07/23 11:05:13;;;;;;;;;;;31.70;79.60;;;;;;5071091;28;20382;-74
2022/07/23 11:07:58;;;;;;;;;;;32.10;81.30;;;;;;5070418;28;19915;-74
2022/07/23 11:10:43;;;;;;;;;;;32.60;74.00;;;;;;5071823;28;19912;-75
2022/07/23 11:13:23;;;;;;;;;;;32.30;72.80;;;;;;5069489;28;19927;-75
2022/07/23 11:16:01;;;;;;;;;;;32.10;74.20;;;;;;5071892;28;19999;-75
2022/07/23 11:18:39;;;;;;;;;;;30.90;74.40;;;;;;5071497;28;20270;-75
2022/07/23 11:21:33;;;;;;;;;;;31.10;73.50;;;;;;5071170;28;20347;-74
2022/07/23 11:24:13;;;;;;;;;;;29.30;77.90;;;;;;5056703;28;19909;-74
2022/07/23 11:26:47;;;;;;;;;;;27.90;81.50;;;;;;5069629;28;19909;-73
2022/07/23 11:29:24;;;;;;;;;;;28.70;75.90;;;;;;5070381;28;19994;-75
2022/07/23 11:31:53;;;;;;;;;;;29.40;75.60;;;;;;5060186;28;20013;-74
2022/07/23 11:34:29;;;;;;;;;;;29.50;81.50;;;;;;5070830;28;19912;-75
2022/07/23 11:36:55;;;;;;;;;;;30.80;75.80;;;;;;5071157;28;19962;-73
2022/07/23 11:39:24;;;;;;;;;;;30.80;71.60;;;;;;5070097;28;19912;-75
2022/07/23 11:41:50;;;;;;;;;;;31.10;73.70;;;;;;5070678;28;19908;-75
2022/07/23 11:44:26;;;;;;;;;;;31.80;74.20;;;;;;5070762;28;19914;-75
2022/07/23 11:46:58;;;;;;;;;;;31.70;73.60;;;;;;5070984;28;19912;-75
2022/07/23 11:49:24;;;;;;;;;;;32.20;70.20;;;;;;5071160;28;19912;-74
2022/07/23 11:52:08;;;;;;;;;;;32.00;65.40;;;;;;5069048;28;19970;-74
2022/07/23 11:54:34;;;;;;;;;;;31.50;69.70;;;;;;5063688;28;19923;-74
2022/07/23 11:57:01;;;;;;;;;;;30.00;69.30;;;;;;5069187;28;19919;-75
2022/07/23 11:59:27;;;;;;;;;;;29.00;74.80;;;;;;5058183;28;19959;-74
2022/07/23 12:01:56;;;;;;;;;;;29.20;72.10;;;;;;5070456;28;19923;-74
2022/07/23 12:04:22;;;;;;;;;;;29.20;75.50;;;;;;5070530;28;19908;-74
2022/07/23 12:06:47;;;;;;;;;;;28.90;74.20;;;;;;5059658;28;20016;-74
2022/07/23 12:09:13;;;;;;;;;;;30.00;72.70;;;;;;5072659;28;19955;-75
2022/07/23 12:11:38;;;;;;;;;;;30.40;68.30;;;;;;5071159;28;19962;-75
2022/07/23 12:14:04;;;;;;;;;;;30.60;73.00;;;;;;5070351;28;19913;-75
2022/07/23 12:16:29;;;;;;;;;;;31.70;70.30;;;;;;5071179;28;19908;-74
2022/07/23 12:18:56;;;;;;;;;;;31.60;66.30;;;;;;5070898;28;19908;-74
2022/07/23 12:21:22;;;;;;;;;;;30.90;65.60;;;;;;5070438;28;20290;-75
2022/07/23 12:23:48;;;;;;;;;;;31.30;68.50;;;;;;5067856;28;19920;-75
2022/07/23 12:26:14;;;;;;;;;;;31.80;68.40;;;;;;5063790;28;20293;-74
2022/07/23 12:28:41;;;;;;;;;;;;;;;;;;5069586;28;19908;-75
2022/07/23 12:31:07;;;;;;;;;;;32.70;70.60;;;;;;5069750;28;19921;-75
2022/07/23 12:33:33;;;;;;;;;;;;;;;;;;5070068;28;20258;-74
2022/07/23 12:35:59;;;;;;;;;;;32.50;67.50;;;;;;5070714;28;19961;-73
2022/07/23 12:38:25;;;;;;;;;;;;;;;;;;5070281;28;19912;-74
2022/07/23 12:40:54;;;;;;;;;;;31.70;66.50;;;;;;5062308;28;19915;-75
2022/07/23 12:43:28;;;;;;;;;;;32.30;66.80;;;;;;5069067;28;20345;-74
2022/07/23 12:45:54;;;;;;;;;;;30.10;69.00;;;;;;5069570;28;19915;-74
2022/07/23 12:48:21;;;;;;;;;;;29.00;75.50;;;;;;5070757;28;19908;-74
2022/07/23 12:50:51;;;;;;;;;;;28.80;71.90;;;;;;5070279;28;19916;-73
2022/07/23 12:53:16;;;;;;;;;;;28.70;75.90;;;;;;5066098;28;19916;-72
2022/07/23 12:55:43;;;;;;;;;;;28.20;74.30;;;;;;5064106;28;20004;-75
2022/07/23 12:58:11;;;;;;;;;;;28.80;74.40;;;;;;5064553;28;19908;-75
2022/07/23 13:01:09;;;;;;;;;;;32.60;71.70;;;;;;5069759;28;20365;-75
2022/07/23 13:03:34;;;;;;;;;;;35.30;61.70;;;;;;5047274;28;19909;-75
2022/07/23 13:06:01;;;;;;;;;;;34.10;64.10;;;;;;5069261;28;19978;-75
2022/07/23 13:08:28;;;;;;;;;;;33.80;61.50;;;;;;5071804;28;20298;-75
2022/07/23 13:10:53;;;;;;;;;;;31.40;67.60;;;;;;5074531;28;19913;-74
2022/07/23 13:13:23;;;;;;;;;;;32.30;65.50;;;;;;5073305;28;19981;-72
2022/07/23 13:15:49;;;;;;;;;;;33.50;64.10;;;;;;5074071;28;19977;-75
2022/07/23 13:18:16;;;;;;;;;;;33.30;62.20;;;;;;5071613;28;20505;-75
2022/07/23 13:20:42;;;;;;;;;;;32.90;65.00;;;;;;5068713;28;19909;-75
2022/07/23 13:23:08;;;;;;;;;;;29.80;70.70;;;;;;5071523;28;19944;-75
2022/07/23 13:25:33;;;;;;;;;;;28.10;73.50;;;;;;5058640;28;19916;-74
2022/07/23 13:27:59;;;;;;;;;;;27.70;76.80;;;;;;5074002;28;19909;-75
2022/07/23 13:30:25;;;;;;;;;;;30.00;71.80;;;;;;5073678;28;19916;-75
2022/07/23 13:32:51;;;;;;;;;;;29.30;70.90;;;;;;5073420;28;20301;-76
2022/07/23 13:35:16;;;;;;;;;;;28.40;73.80;;;;;;5073133;28;20400;-75
2022/07/23 13:37:42;;;;;;;;;;;27.60;75.90;;;;;;5073757;28;20373;-73
2022/07/23 13:40:07;;;;;;;;;;;27.50;75.30;;;;;;5059376;28;19909;-75
2022/07/23 13:42:33;;;;;;;;;;;27.60;76.00;;;;;;5072339;28;19913;-75
2022/07/23 13:44:58;;;;;;;;;;;28.00;75.60;;;;;;5073494;28;19916;-75
2022/07/23 13:47:24;;;;;;;;;;;27.70;76.70;;;;;;5072702;28;19910;-75
2022/07/23 13:49:49;;;;;;;;;;;29.40;72.90;;;;;;5073720;28;19909;-76
2022/07/23 13:52:15;;;;;;;;;;;28.70;76.30;;;;;;5071878;28;20354;-75
2022/07/23 13:54:40;;;;;;;;;;;27.50;77.30;;;;;;5069578;28;19916;-74
2022/07/23 13:57:06;;;;;;;;;;;26.90;77.40;;;;;;5063370;28;19973;-73
2022/07/23 13:59:32;;;;;;;;;;;26.50;79.90;;;;;;5073915;28;19909;-75
2022/07/23 14:01:57;;;;;;;;;;;26.60;81.20;;;;;;5073085;28;19977;-75
2022/07/23 14:04:26;;;;;;;;;;;26.60;78.80;;;;;;5073003;28;19919;-74
2022/07/23 14:06:51;;;;;;;;;;;26.60;79.10;;;;;;5073258;28;19915;-75
2022/07/23 14:09:17;;;;;;;;;;;26.80;78.40;;;;;;5073474;28;19909;-74
2022/07/23 14:11:42;;;;;;;;;;;27.20;77.20;;;;;;5073030;28;19917;-75
2022/07/23 14:14:08;;;;;;;;;;;28.50;76.80;;;;;;5071111;28;20054;-75
2022/07/23 14:16:33;;;;;;;;;;;28.20;75.60;;;;;;5073345;28;19935;-75
2022/07/23 14:18:59;;;;;;;;;;;28.40;72.60;;;;;;5072879;28;20025;-75